Kansai — JD3272 — position and weather

sailwx.info

Track history (hours):
 
Tides and Currents Weather Stations Pressure Air Temp Water Temp Dewpoint Dewpoint Depression Visibility Wind Speed Wind Dir Waves Ship Positions

Kansai

Last reported at 2015-May-29 15:33 UTC. Time now 2015-May-29 16:26 UTC.
Position N 34°34' E 135°06'.

Length 73 m; draft 4.2 m.

Type: Cargo ship. MMSI: 431003134.

Date/timePositionNaut miles runAvg speedWind from/ knotsBaromVisibWave heightAir tempDewpointWater temp
2015-May-29 15:33N 34°34' E 135°06'1010.2
2015-May-29 14:33N 34°24' E 135°03'224 8.6
2015-May-28 12:30N 34°60' E 139°32'1111.4
2015-May-28 11:33N 35°07' E 139°42'1110.8
2015-May-28 10:33N 35°17' E 139°45'9 9.5
2015-May-28 09:33N 35°27' E 139°47'1111.3
2015-May-28 08:33N 35°35' E 139°56'6 6.1
2015-May-28 07:33N 35°41' E 139°57'0 0.0
2015-May-28 06:33N 35°41' E 139°57'0 0.0
2015-May-28 05:33N 35°41' E 139°57'0 0.0
2015-May-28 04:33N 35°41' E 139°57'0 0.0
2015-May-28 03:33N 35°41' E 139°57'0 0.0
2015-May-28 02:33N 35°41' E 139°57'0 0.0
2015-May-28 01:33N 35°41' E 139°57'0 0.0
2015-May-28 00:33N 35°41' E 139°57'0 0.0
2015-May-27 23:33N 35°41' E 139°57'0 0.0
2015-May-27 22:33N 35°41' E 139°57'4 3.5
2015-May-27 21:33N 35°37' E 139°58'1 0.6
2015-May-27 20:33N 35°37' E 139°57'0 0.0
2015-May-27 19:33N 35°37' E 139°57'0 0.0
2015-May-27 18:33N 35°37' E 139°57'0 0.0
2015-May-27 17:32N 35°37' E 139°57'0 0.0
2015-May-27 16:33N 35°37' E 139°57'0 0.0
2015-May-27 15:33N 35°37' E 139°57'2 2.4
2015-May-27 14:33N 35°35' E 139°56'1010.1
2015-May-27 13:33N 35°26' E 139°49'10 9.6
2015-May-27 12:33N 35°17' E 139°45'1010.1
2015-May-27 11:33N 35°07' E 139°46'244 8.7
2015-May-26 07:33N 34°04' E 134°59'1110.8
2015-May-26 06:33N 34°15' E 134°59'10 9.7
2015-May-26 05:29N 34°25' E 135°00'9 9.8
2015-May-26 04:33N 34°34' E 135°03'8 7.8
2015-May-26 03:31N 34°37' E 134°53'  
2015-May-22 23:30N 34°41' E 134°50'10 9.8
2015-May-22 22:28N 34°37' E 135°01'7 7.7
2015-May-22 21:33N 34°38' E 135°10'0 0.0
2015-May-22 20:33N 34°38' E 135°10'0 0.0
2015-May-22 19:33N 34°38' E 135°10'0 0.0
2015-May-22 18:33N 34°38' E 135°10'0 0.1
2015-May-22 17:33N 34°38' E 135°10'0 0.0
2015-May-22 16:33N 34°38' E 135°10'0 0.0
2015-May-22 15:33N 34°38' E 135°10'0 0.0
2015-May-22 14:33N 34°38' E 135°10'0 0.0
2015-May-22 13:33N 34°38' E 135°10'0 0.1
2015-May-22 12:33N 34°38' E 135°10'0 0.1
2015-May-22 11:33N 34°38' E 135°10'9 8.6
2015-May-22 10:33N 34°30' E 135°05'1411.9
2015-May-22 09:25N 34°17' E 134°59'10 9.8
2015-May-22 08:25N 34°08' E 135°00'227 9.0
2015-May-21 07:04N 34°60' E 139°29'510.7
2015-May-21 06:34N 35°03' E 139°34'1111.2
2015-May-21 05:34N 35°10' E 139°44'1010.3
2015-May-21 04:33N 35°20' E 139°43'1111.0
2015-May-21 03:33N 35°29' E 139°51'1111.5
2015-May-21 02:34N 35°39' E 139°58'2 2.0
2015-May-21 01:33N 35°41' E 139°57'0 0.0
2015-May-21 00:34N 35°41' E 139°57'0 0.0
2015-May-20 23:34N 35°41' E 139°57'3 2.7
2015-May-20 22:34N 35°38' E 139°59'1 1.2
2015-May-20 21:34N 35°37' E 139°58'0 0.0
2015-May-20 20:33N 35°37' E 139°58'0 0.0
2015-May-20 19:33N 35°37' E 139°58'0 0.0
2015-May-20 18:34N 35°37' E 139°58'0 0.0
2015-May-20 17:34N 35°37' E 139°58'0 0.1
2015-May-20 16:34N 35°37' E 139°58'0 0.0
2015-May-20 15:33N 35°37' E 139°58'0 0.0
2015-May-20 14:34N 35°37' E 139°58'0 0.0
2015-May-20 13:34N 35°37' E 139°58'0 0.1
2015-May-20 12:34N 35°37' E 139°58'9 8.6
2015-May-20 11:34N 35°30' E 139°53'1010.1
2015-May-20 10:33N 35°22' E 139°45'10 9.6
2015-May-20 09:34N 35°12' E 139°47'1110.5
2015-May-20 08:33N 35°03' E 139°40'  
Track history (hours):
 
Tides and Currents Weather Stations Pressure Air Temp Water Temp Dewpoint Dewpoint Depression Visibility Wind Speed Wind Dir Waves Ship Positions

Kansai

Last reported at 2015-May-29 15:33 UTC. Time now 2015-May-29 16:26 UTC.
Position N 34°34' E 135°06'.

Length 73 m; draft 4.2 m.

Type: Cargo ship. MMSI: 431003134.

Date/timePositionNaut miles runAvg speedWind from/ knotsBaromVisibWave heightAir tempDewpointWater temp
2015-May-29 15:33N 34°34' E 135°06'1010.2
2015-May-29 14:33N 34°24' E 135°03'224 8.6
2015-May-28 12:30N 34°60' E 139°32'1111.4
2015-May-28 11:33N 35°07' E 139°42'1110.8
2015-May-28 10:33N 35°17' E 139°45'9 9.5
2015-May-28 09:33N 35°27' E 139°47'1111.3
2015-May-28 08:33N 35°35' E 139°56'6 6.1
2015-May-28 07:33N 35°41' E 139°57'0 0.0
2015-May-28 06:33N 35°41' E 139°57'0 0.0
2015-May-28 05:33N 35°41' E 139°57'0 0.0
2015-May-28 04:33N 35°41' E 139°57'0 0.0
2015-May-28 03:33N 35°41' E 139°57'0 0.0
2015-May-28 02:33N 35°41' E 139°57'0 0.0
2015-May-28 01:33N 35°41' E 139°57'0 0.0
2015-May-28 00:33N 35°41' E 139°57'0 0.0
2015-May-27 23:33N 35°41' E 139°57'0 0.0
2015-May-27 22:33N 35°41' E 139°57'4 3.5
2015-May-27 21:33N 35°37' E 139°58'1 0.6
2015-May-27 20:33N 35°37' E 139°57'0 0.0
2015-May-27 19:33N 35°37' E 139°57'0 0.0
2015-May-27 18:33N 35°37' E 139°57'0 0.0
2015-May-27 17:32N 35°37' E 139°57'0 0.0
2015-May-27 16:33N 35°37' E 139°57'0 0.0
2015-May-27 15:33N 35°37' E 139°57'2 2.4
2015-May-27 14:33N 35°35' E 139°56'1010.1
2015-May-27 13:33N 35°26' E 139°49'10 9.6
2015-May-27 12:33N 35°17' E 139°45'1010.1
2015-May-27 11:33N 35°07' E 139°46'244 8.7
2015-May-26 07:33N 34°04' E 134°59'1110.8
2015-May-26 06:33N 34°15' E 134°59'10 9.7
2015-May-26 05:29N 34°25' E 135°00'9 9.8
2015-May-26 04:33N 34°34' E 135°03'8 7.8
2015-May-26 03:31N 34°37' E 134°53'  
2015-May-22 23:30N 34°41' E 134°50'10 9.8
2015-May-22 22:28N 34°37' E 135°01'7 7.7
2015-May-22 21:33N 34°38' E 135°10'0 0.0
2015-May-22 20:33N 34°38' E 135°10'0 0.0
2015-May-22 19:33N 34°38' E 135°10'0 0.0
2015-May-22 18:33N 34°38' E 135°10'0 0.1
2015-May-22 17:33N 34°38' E 135°10'0 0.0
2015-May-22 16:33N 34°38' E 135°10'0 0.0
2015-May-22 15:33N 34°38' E 135°10'0 0.0
2015-May-22 14:33N 34°38' E 135°10'0 0.0
2015-May-22 13:33N 34°38' E 135°10'0 0.1
2015-May-22 12:33N 34°38' E 135°10'0 0.1
2015-May-22 11:33N 34°38' E 135°10'9 8.6
2015-May-22 10:33N 34°30' E 135°05'1411.9
2015-May-22 09:25N 34°17' E 134°59'10 9.8
2015-May-22 08:25N 34°08' E 135°00'227 9.0
2015-May-21 07:04N 34°60' E 139°29'510.7
2015-May-21 06:34N 35°03' E 139°34'1111.2
2015-May-21 05:34N 35°10' E 139°44'1010.3
2015-May-21 04:33N 35°20' E 139°43'1111.0
2015-May-21 03:33N 35°29' E 139°51'1111.5
2015-May-21 02:34N 35°39' E 139°58'2 2.0
2015-May-21 01:33N 35°41' E 139°57'0 0.0
2015-May-21 00:34N 35°41' E 139°57'0 0.0
2015-May-20 23:34N 35°41' E 139°57'3 2.7
2015-May-20 22:34N 35°38' E 139°59'1 1.2
2015-May-20 21:34N 35°37' E 139°58'0 0.0
2015-May-20 20:33N 35°37' E 139°58'0 0.0
2015-May-20 19:33N 35°37' E 139°58'0 0.0
2015-May-20 18:34N 35°37' E 139°58'0 0.0
2015-May-20 17:34N 35°37' E 139°58'0 0.1
2015-May-20 16:34N 35°37' E 139°58'0 0.0
2015-May-20 15:33N 35°37' E 139°58'0 0.0
2015-May-20 14:34N 35°37' E 139°58'0 0.0
2015-May-20 13:34N 35°37' E 139°58'0 0.1
2015-May-20 12:34N 35°37' E 139°58'9 8.6
2015-May-20 11:34N 35°30' E 139°53'1010.1
2015-May-20 10:33N 35°22' E 139°45'10 9.6
2015-May-20 09:34N 35°12' E 139°47'1110.5
2015-May-20 08:33N 35°03' E 139°40'  

Dump ship's entire track history